sensor_id;sensor_type;location;lat;lon;timestamp;P1;durP1;ratioP1;P2;durP2;ratioP2
80231;SDS011;70197;42.124;24.752;2023-07-13T00:00:11;9.00;;;3.88;;
80231;SDS011;70197;42.124;24.752;2023-07-13T00:02:41;10.70;;;4.63;;
80231;SDS011;70197;42.124;24.752;2023-07-13T00:05:07;11.32;;;4.50;;
80231;SDS011;70197;42.124;24.752;2023-07-13T00:07:34;8.43;;;4.22;;
80231;SDS011;70197;42.124;24.752;2023-07-13T00:10:00;7.88;;;4.13;;
80231;SDS011;70197;42.124;24.752;2023-07-13T00:12:27;9.63;;;3.72;;
80231;SDS011;70197;42.124;24.752;2023-07-13T00:14:56;6.80;;;3.92;;
80231;SDS011;70197;42.124;24.752;2023-07-13T00:17:26;7.05;;;3.90;;
80231;SDS011;70197;42.124;24.752;2023-07-13T00:19:52;4.43;;;3.65;;
80231;SDS011;70197;42.124;24.752;2023-07-13T00:22:20;6.93;;;4.10;;
80231;SDS011;70197;42.124;24.752;2023-07-13T00:24:46;8.32;;;3.65;;
80231;SDS011;70197;42.124;24.752;2023-07-13T00:27:14;8.63;;;4.07;;
80231;SDS011;70197;42.124;24.752;2023-07-13T00:29:40;7.05;;;3.95;;
80231;SDS011;70197;42.124;24.752;2023-07-13T00:32:06;9.30;;;4.18;;
80231;SDS011;70197;42.124;24.752;2023-07-13T00:34:34;8.38;;;4.25;;
80231;SDS011;70197;42.124;24.752;2023-07-13T00:37:00;7.00;;;3.83;;
80231;SDS011;70197;42.124;24.752;2023-07-13T00:39:25;8.02;;;3.88;;
80231;SDS011;70197;42.124;24.752;2023-07-13T00:41:51;8.90;;;3.72;;
80231;SDS011;70197;42.124;24.752;2023-07-13T00:44:18;8.50;;;4.10;;
80231;SDS011;70197;42.124;24.752;2023-07-13T00:46:44;9.30;;;4.20;;
80231;SDS011;70197;42.124;24.752;2023-07-13T00:49:14;9.15;;;4.32;;
80231;SDS011;70197;42.124;24.752;2023-07-13T00:51:49;8.35;;;4.20;;
80231;SDS011;70197;42.124;24.752;2023-07-13T00:54:20;8.05;;;4.13;;
80231;SDS011;70197;42.124;24.752;2023-07-13T00:56:49;7.57;;;4.57;;
80231;SDS011;70197;42.124;24.752;2023-07-13T00:59:18;10.45;;;4.35;;
80231;SDS011;70197;42.124;24.752;2023-07-13T01:01:45;9.00;;;4.55;;
80231;SDS011;70197;42.124;24.752;2023-07-13T01:04:11;11.20;;;4.80;;
80231;SDS011;70197;42.124;24.752;2023-07-13T01:06:39;8.30;;;4.57;;
80231;SDS011;70197;42.124;24.752;2023-07-13T01:09:06;9.57;;;4.35;;
80231;SDS011;70197;42.124;24.752;2023-07-13T01:11:33;8.27;;;4.22;;
80231;SDS011;70197;42.124;24.752;2023-07-13T01:14:00;7.95;;;4.65;;
80231;SDS011;70197;42.124;24.752;2023-07-13T01:16:30;7.95;;;5.05;;
80231;SDS011;70197;42.124;24.752;2023-07-13T01:18:58;7.82;;;4.50;;
80231;SDS011;70197;42.124;24.752;2023-07-13T01:21:26;9.25;;;4.60;;
80231;SDS011;70197;42.124;24.752;2023-07-13T01:23:53;7.60;;;4.40;;
80231;SDS011;70197;42.124;24.752;2023-07-13T01:26:19;8.20;;;4.38;;
80231;SDS011;70197;42.124;24.752;2023-07-13T01:28:44;12.05;;;4.82;;
80231;SDS011;70197;42.124;24.752;2023-07-13T01:31:10;10.63;;;4.88;;
80231;SDS011;70197;42.124;24.752;2023-07-13T01:33:38;7.13;;;4.28;;
80231;SDS011;70197;42.124;24.752;2023-07-13T01:36:05;7.50;;;4.47;;
80231;SDS011;70197;42.124;24.752;2023-07-13T01:38:31;8.52;;;4.65;;
80231;SDS011;70197;42.124;24.752;2023-07-13T01:40:57;12.18;;;4.60;;
80231;SDS011;70197;42.124;24.752;2023-07-13T01:43:23;10.75;;;4.28;;
80231;SDS011;70197;42.124;24.752;2023-07-13T01:45:48;10.73;;;4.50;;
80231;SDS011;70197;42.124;24.752;2023-07-13T01:48:14;9.10;;;4.88;;
80231;SDS011;70197;42.124;24.752;2023-07-13T01:50:40;19.02;;;5.45;;
80231;SDS011;70197;42.124;24.752;2023-07-13T01:53:05;9.25;;;5.53;;
80231;SDS011;70197;42.124;24.752;2023-07-13T01:55:31;11.35;;;5.28;;
80231;SDS011;70197;42.124;24.752;2023-07-13T01:57:57;10.75;;;5.40;;
80231;SDS011;70197;42.124;24.752;2023-07-13T02:00:22;8.93;;;4.70;;
80231;SDS011;70197;42.124;24.752;2023-07-13T02:02:49;11.30;;;5.25;;
80231;SDS011;70197;42.124;24.752;2023-07-13T02:05:15;12.60;;;5.38;;
80231;SDS011;70197;42.124;24.752;2023-07-13T02:07:41;8.05;;;4.65;;
80231;SDS011;70197;42.124;24.752;2023-07-13T02:10:08;10.05;;;5.22;;
80231;SDS011;70197;42.124;24.752;2023-07-13T02:12:35;9.85;;;4.93;;
80231;SDS011;70197;42.124;24.752;2023-07-13T02:15:01;11.15;;;4.88;;
80231;SDS011;70197;42.124;24.752;2023-07-13T02:17:28;9.70;;;5.25;;
80231;SDS011;70197;42.124;24.752;2023-07-13T02:19:53;12.25;;;5.28;;
80231;SDS011;70197;42.124;24.752;2023-07-13T02:22:20;14.98;;;5.43;;
80231;SDS011;70197;42.124;24.752;2023-07-13T02:24:47;9.90;;;5.70;;
80231;SDS011;70197;42.124;24.752;2023-07-13T02:27:13;11.38;;;5.30;;
80231;SDS011;70197;42.124;24.752;2023-07-13T02:29:39;10.25;;;5.28;;
80231;SDS011;70197;42.124;24.752;2023-07-13T02:32:05;10.32;;;5.38;;
80231;SDS011;70197;42.124;24.752;2023-07-13T02:34:31;8.00;;;5.30;;
80231;SDS011;70197;42.124;24.752;2023-07-13T02:36:56;12.02;;;5.57;;
80231;SDS011;70197;42.124;24.752;2023-07-13T02:39:22;9.77;;;5.47;;
80231;SDS011;70197;42.124;24.752;2023-07-13T02:41:48;13.30;;;5.35;;
80231;SDS011;70197;42.124;24.752;2023-07-13T02:44:14;10.38;;;5.63;;
80231;SDS011;70197;42.124;24.752;2023-07-13T02:46:40;10.60;;;5.32;;
80231;SDS011;70197;42.124;24.752;2023-07-13T02:49:06;8.73;;;5.63;;
80231;SDS011;70197;42.124;24.752;2023-07-13T02:55:23;11.38;;;5.68;;
80231;SDS011;70197;42.124;24.752;2023-07-13T02:57:49;11.63;;;5.97;;
80231;SDS011;70197;42.124;24.752;2023-07-13T03:00:15;10.50;;;5.28;;
80231;SDS011;70197;42.124;24.752;2023-07-13T03:02:41;11.77;;;5.40;;
80231;SDS011;70197;42.124;24.752;2023-07-13T03:05:07;12.30;;;5.72;;
80231;SDS011;70197;42.124;24.752;2023-07-13T03:07:35;15.55;;;6.55;;
80231;SDS011;70197;42.124;24.752;2023-07-13T03:10:01;10.52;;;5.55;;
80231;SDS011;70197;42.124;24.752;2023-07-13T03:12:27;7.50;;;5.40;;
80231;SDS011;70197;42.124;24.752;2023-07-13T03:17:56;9.57;;;5.43;;
80231;SDS011;70197;42.124;24.752;2023-07-13T03:20:21;11.35;;;5.32;;
80231;SDS011;70197;42.124;24.752;2023-07-13T03:22:47;9.70;;;5.38;;
80231;SDS011;70197;42.124;24.752;2023-07-13T03:25:13;10.77;;;5.50;;
80231;SDS011;70197;42.124;24.752;2023-07-13T03:27:39;10.95;;;5.75;;
80231;SDS011;70197;42.124;24.752;2023-07-13T03:30:05;9.85;;;5.43;;
80231;SDS011;70197;42.124;24.752;2023-07-13T03:32:31;12.13;;;5.60;;
80231;SDS011;70197;42.124;24.752;2023-07-13T03:34:57;33.45;;;7.40;;
80231;SDS011;70197;42.124;24.752;2023-07-13T03:37:23;20.17;;;6.22;;
80231;SDS011;70197;42.124;24.752;2023-07-13T03:39:49;11.63;;;5.85;;
80231;SDS011;70197;42.124;24.752;2023-07-13T03:42:15;13.20;;;5.88;;
80231;SDS011;70197;42.124;24.752;2023-07-13T03:44:41;14.68;;;6.50;;
80231;SDS011;70197;42.124;24.752;2023-07-13T03:47:10;15.65;;;6.75;;
80231;SDS011;70197;42.124;24.752;2023-07-13T03:49:36;11.43;;;6.43;;
80231;SDS011;70197;42.124;24.752;2023-07-13T03:52:02;15.90;;;6.93;;
80231;SDS011;70197;42.124;24.752;2023-07-13T03:54:28;13.25;;;5.53;;
80231;SDS011;70197;42.124;24.752;2023-07-13T03:56:53;12.52;;;6.53;;
80231;SDS011;70197;42.124;24.752;2023-07-13T03:59:20;12.13;;;5.88;;
80231;SDS011;70197;42.124;24.752;2023-07-13T04:01:45;15.55;;;6.28;;
80231;SDS011;70197;42.124;24.752;2023-07-13T04:04:11;14.30;;;7.07;;
80231;SDS011;70197;42.124;24.752;2023-07-13T04:06:37;11.15;;;6.70;;
80231;SDS011;70197;42.124;24.752;2023-07-13T04:09:03;21.55;;;8.18;;
80231;SDS011;70197;42.124;24.752;2023-07-13T04:11:33;12.95;;;7.05;;
80231;SDS011;70197;42.124;24.752;2023-07-13T04:14:01;20.05;;;7.20;;
80231;SDS011;70197;42.124;24.752;2023-07-13T04:16:27;17.45;;;7.07;;
80231;SDS011;70197;42.124;24.752;2023-07-13T04:18:54;12.90;;;7.25;;
80231;SDS011;70197;42.124;24.752;2023-07-13T04:21:24;23.13;;;8.07;;
80231;SDS011;70197;42.124;24.752;2023-07-13T04:23:50;15.20;;;6.78;;
80231;SDS011;70197;42.124;24.752;2023-07-13T04:26:16;18.15;;;9.70;;
80231;SDS011;70197;42.124;24.752;2023-07-13T04:28:41;30.95;;;9.45;;
80231;SDS011;70197;42.124;24.752;2023-07-13T04:31:07;21.20;;;7.30;;
80231;SDS011;70197;42.124;24.752;2023-07-13T04:33:33;20.33;;;6.70;;
80231;SDS011;70197;42.124;24.752;2023-07-13T04:35:59;24.02;;;6.60;;
80231;SDS011;70197;42.124;24.752;2023-07-13T04:38:27;17.92;;;6.20;;
80231;SDS011;70197;42.124;24.752;2023-07-13T04:40:55;22.75;;;6.70;;
80231;SDS011;70197;42.124;24.752;2023-07-13T04:43:23;22.52;;;7.05;;
80231;SDS011;70197;42.124;24.752;2023-07-13T04:45:50;22.20;;;6.75;;
80231;SDS011;70197;42.124;24.752;2023-07-13T04:48:16;20.73;;;6.50;;
80231;SDS011;70197;42.124;24.752;2023-07-13T04:50:42;14.73;;;7.07;;
80231;SDS011;70197;42.124;24.752;2023-07-13T04:53:08;14.13;;;6.97;;
80231;SDS011;70197;42.124;24.752;2023-07-13T04:55:35;16.73;;;7.53;;
80231;SDS011;70197;42.124;24.752;2023-07-13T04:58:01;22.65;;;7.45;;
80231;SDS011;70197;42.124;24.752;2023-07-13T05:00:28;21.30;;;6.85;;
80231;SDS011;70197;42.124;24.752;2023-07-13T05:02:57;13.38;;;6.50;;
80231;SDS011;70197;42.124;24.752;2023-07-13T05:05:26;14.82;;;6.88;;
80231;SDS011;70197;42.124;24.752;2023-07-13T05:07:53;15.90;;;7.70;;
80231;SDS011;70197;42.124;24.752;2023-07-13T05:10:19;24.55;;;8.00;;
80231;SDS011;70197;42.124;24.752;2023-07-13T05:12:44;19.15;;;7.32;;
80231;SDS011;70197;42.124;24.752;2023-07-13T05:15:10;27.85;;;7.65;;
80231;SDS011;70197;42.124;24.752;2023-07-13T05:17:36;19.27;;;7.53;;
80231;SDS011;70197;42.124;24.752;2023-07-13T05:20:04;25.23;;;7.82;;
80231;SDS011;70197;42.124;24.752;2023-07-13T05:22:30;19.52;;;8.88;;
80231;SDS011;70197;42.124;24.752;2023-07-13T05:24:56;19.60;;;8.30;;
80231;SDS011;70197;42.124;24.752;2023-07-13T05:27:22;18.10;;;8.27;;
80231;SDS011;70197;42.124;24.752;2023-07-13T05:29:48;16.38;;;8.20;;
80231;SDS011;70197;42.124;24.752;2023-07-13T05:32:14;21.15;;;8.75;;
80231;SDS011;70197;42.124;24.752;2023-07-13T05:34:39;19.77;;;8.35;;
80231;SDS011;70197;42.124;24.752;2023-07-13T05:37:05;22.88;;;8.00;;
80231;SDS011;70197;42.124;24.752;2023-07-13T05:39:31;21.65;;;8.00;;
80231;SDS011;70197;42.124;24.752;2023-07-13T05:41:56;18.13;;;7.63;;
80231;SDS011;70197;42.124;24.752;2023-07-13T05:44:22;18.50;;;7.78;;
80231;SDS011;70197;42.124;24.752;2023-07-13T05:46:48;25.92;;;8.20;;
80231;SDS011;70197;42.124;24.752;2023-07-13T05:49:13;25.85;;;8.70;;
80231;SDS011;70197;42.124;24.752;2023-07-13T05:51:39;29.27;;;8.20;;
80231;SDS011;70197;42.124;24.752;2023-07-13T05:54:05;19.92;;;8.00;;
80231;SDS011;70197;42.124;24.752;2023-07-13T05:56:30;26.20;;;8.27;;
80231;SDS011;70197;42.124;24.752;2023-07-13T05:58:56;34.60;;;8.40;;
80231;SDS011;70197;42.124;24.752;2023-07-13T06:01:21;27.55;;;8.27;;
80231;SDS011;70197;42.124;24.752;2023-07-13T06:03:48;29.20;;;8.32;;
80231;SDS011;70197;42.124;24.752;2023-07-13T06:06:14;25.27;;;8.90;;
80231;SDS011;70197;42.124;24.752;2023-07-13T06:08:40;22.10;;;7.80;;
80231;SDS011;70197;42.124;24.752;2023-07-13T06:11:07;21.30;;;7.38;;
80231;SDS011;70197;42.124;24.752;2023-07-13T06:13:38;43.37;;;8.07;;
80231;SDS011;70197;42.124;24.752;2023-07-13T06:16:04;25.23;;;7.55;;
80231;SDS011;70197;42.124;24.752;2023-07-13T06:18:31;29.85;;;7.88;;
80231;SDS011;70197;42.124;24.752;2023-07-13T06:21:05;21.73;;;7.00;;
80231;SDS011;70197;42.124;24.752;2023-07-13T06:23:42;28.52;;;7.53;;
80231;SDS011;70197;42.124;24.752;2023-07-13T06:26:08;25.65;;;7.18;;
80231;SDS011;70197;42.124;24.752;2023-07-13T06:28:34;23.58;;;7.22;;
80231;SDS011;70197;42.124;24.752;2023-07-13T06:31:01;23.50;;;7.00;;
80231;SDS011;70197;42.124;24.752;2023-07-13T06:33:27;16.27;;;7.40;;
80231;SDS011;70197;42.124;24.752;2023-07-13T06:35:53;19.17;;;6.78;;
80231;SDS011;70197;42.124;24.752;2023-07-13T06:38:20;16.52;;;6.55;;
80231;SDS011;70197;42.124;24.752;2023-07-13T06:40:46;18.50;;;6.70;;
80231;SDS011;70197;42.124;24.752;2023-07-13T06:43:11;17.52;;;6.30;;
80231;SDS011;70197;42.124;24.752;2023-07-13T06:45:43;15.18;;;6.40;;
80231;SDS011;70197;42.124;24.752;2023-07-13T06:48:12;22.67;;;6.20;;
80231;SDS011;70197;42.124;24.752;2023-07-13T06:50:38;15.98;;;5.70;;
80231;SDS011;70197;42.124;24.752;2023-07-13T06:53:04;20.02;;;6.20;;
80231;SDS011;70197;42.124;24.752;2023-07-13T06:55:29;16.45;;;5.90;;
80231;SDS011;70197;42.124;24.752;2023-07-13T06:57:55;20.73;;;6.93;;
80231;SDS011;70197;42.124;24.752;2023-07-13T07:00:21;17.52;;;6.25;;
80231;SDS011;70197;42.124;24.752;2023-07-13T07:02:46;13.98;;;6.82;;
80231;SDS011;70197;42.124;24.752;2023-07-13T07:05:12;17.23;;;5.97;;
80231;SDS011;70197;42.124;24.752;2023-07-13T07:07:38;16.80;;;6.20;;
80231;SDS011;70197;42.124;24.752;2023-07-13T07:10:03;17.65;;;5.95;;
80231;SDS011;70197;42.124;24.752;2023-07-13T07:12:29;18.95;;;7.32;;
80231;SDS011;70197;42.124;24.752;2023-07-13T07:14:55;25.02;;;7.43;;
80231;SDS011;70197;42.124;24.752;2023-07-13T07:17:21;20.98;;;6.78;;
80231;SDS011;70197;42.124;24.752;2023-07-13T07:19:46;11.55;;;6.20;;
80231;SDS011;70197;42.124;24.752;2023-07-13T07:22:12;25.67;;;7.25;;
80231;SDS011;70197;42.124;24.752;2023-07-13T07:24:38;23.08;;;6.53;;
80231;SDS011;70197;42.124;24.752;2023-07-13T07:27:03;12.45;;;6.35;;
80231;SDS011;70197;42.124;24.752;2023-07-13T07:29:29;15.52;;;5.80;;
80231;SDS011;70197;42.124;24.752;2023-07-13T07:31:55;11.45;;;5.70;;
80231;SDS011;70197;42.124;24.752;2023-07-13T07:34:21;11.65;;;6.38;;
80231;SDS011;70197;42.124;24.752;2023-07-13T07:36:46;10.57;;;5.90;;
80231;SDS011;70197;42.124;24.752;2023-07-13T07:39:12;17.95;;;6.25;;
80231;SDS011;70197;42.124;24.752;2023-07-13T07:41:37;25.48;;;6.57;;
80231;SDS011;70197;42.124;24.752;2023-07-13T07:44:03;13.35;;;6.18;;
80231;SDS011;70197;42.124;24.752;2023-07-13T07:46:29;19.73;;;6.60;;
80231;SDS011;70197;42.124;24.752;2023-07-13T07:48:55;11.90;;;5.88;;
80231;SDS011;70197;42.124;24.752;2023-07-13T07:51:21;19.75;;;5.70;;
80231;SDS011;70197;42.124;24.752;2023-07-13T07:53:47;14.00;;;6.10;;
80231;SDS011;70197;42.124;24.752;2023-07-13T07:56:13;19.88;;;6.88;;
80231;SDS011;70197;42.124;24.752;2023-07-13T07:58:41;15.60;;;5.78;;
80231;SDS011;70197;42.124;24.752;2023-07-13T08:01:07;18.42;;;6.22;;
80231;SDS011;70197;42.124;24.752;2023-07-13T08:03:33;21.15;;;6.13;;
80231;SDS011;70197;42.124;24.752;2023-07-13T08:05:59;12.63;;;5.90;;
80231;SDS011;70197;42.124;24.752;2023-07-13T08:08:25;11.70;;;6.22;;
80231;SDS011;70197;42.124;24.752;2023-07-13T08:10:51;16.55;;;6.40;;
80231;SDS011;70197;42.124;24.752;2023-07-13T08:13:17;11.48;;;5.35;;
80231;SDS011;70197;42.124;24.752;2023-07-13T08:15:43;14.25;;;5.78;;
80231;SDS011;70197;42.124;24.752;2023-07-13T08:18:08;12.18;;;5.32;;
80231;SDS011;70197;42.124;24.752;2023-07-13T08:20:38;20.65;;;5.95;;
80231;SDS011;70197;42.124;24.752;2023-07-13T08:23:04;19.00;;;5.85;;
80231;SDS011;70197;42.124;24.752;2023-07-13T08:25:30;26.20;;;6.63;;
80231;SDS011;70197;42.124;24.752;2023-07-13T08:27:56;15.02;;;5.35;;
80231;SDS011;70197;42.124;24.752;2023-07-13T08:30:21;15.02;;;5.38;;
80231;SDS011;70197;42.124;24.752;2023-07-13T08:32:48;19.55;;;5.38;;
80231;SDS011;70197;42.124;24.752;2023-07-13T08:35:15;20.83;;;5.68;;
80231;SDS011;70197;42.124;24.752;2023-07-13T08:37:42;11.98;;;4.80;;
80231;SDS011;70197;42.124;24.752;2023-07-13T08:40:11;16.42;;;5.13;;
80231;SDS011;70197;42.124;24.752;2023-07-13T08:42:42;12.32;;;4.50;;
80231;SDS011;70197;42.124;24.752;2023-07-13T08:45:30;10.95;;;5.03;;
80231;SDS011;70197;42.124;24.752;2023-07-13T08:48:20;13.15;;;5.00;;
80231;SDS011;70197;42.124;24.752;2023-07-13T08:51:03;8.90;;;4.53;;
80231;SDS011;70197;42.124;24.752;2023-07-13T08:53:54;18.92;;;4.57;;
80231;SDS011;70197;42.124;24.752;2023-07-13T08:56:24;18.65;;;4.68;;
80231;SDS011;70197;42.124;24.752;2023-07-13T08:59:05;15.40;;;4.82;;
80231;SDS011;70197;42.124;24.752;2023-07-13T09:04:32;20.90;;;5.07;;
80231;SDS011;70197;42.124;24.752;2023-07-13T09:15:00;15.52;;;4.38;;
80231;SDS011;70197;42.124;24.752;2023-07-13T09:17:34;12.95;;;4.57;;
80231;SDS011;70197;42.124;24.752;2023-07-13T09:22:53;13.65;;;5.22;;
80231;SDS011;70197;42.124;24.752;2023-07-13T09:25:29;15.05;;;5.00;;
80231;SDS011;70197;42.124;24.752;2023-07-13T09:27:58;16.08;;;5.00;;
80231;SDS011;70197;42.124;24.752;2023-07-13T09:30:37;26.95;;;5.68;;
80231;SDS011;70197;42.124;24.752;2023-07-13T09:33:04;12.68;;;5.30;;
80231;SDS011;70197;42.124;24.752;2023-07-13T09:35:30;15.70;;;5.47;;
80231;SDS011;70197;42.124;24.752;2023-07-13T09:37:57;19.02;;;5.43;;
80231;SDS011;70197;42.124;24.752;2023-07-13T09:43:36;11.82;;;5.40;;
80231;SDS011;70197;42.124;24.752;2023-07-13T09:46:02;19.00;;;6.05;;
80231;SDS011;70197;42.124;24.752;2023-07-13T09:48:34;19.75;;;6.07;;
80231;SDS011;70197;42.124;24.752;2023-07-13T09:53:41;18.30;;;5.65;;
80231;SDS011;70197;42.124;24.752;2023-07-13T09:56:18;26.13;;;5.60;;
80231;SDS011;70197;42.124;24.752;2023-07-13T09:58:49;14.63;;;6.00;;
80231;SDS011;70197;42.124;24.752;2023-07-13T10:01:15;13.75;;;5.78;;
80231;SDS011;70197;42.124;24.752;2023-07-13T10:03:55;16.42;;;5.97;;
80231;SDS011;70197;42.124;24.752;2023-07-13T10:06:21;15.13;;;6.05;;
80231;SDS011;70197;42.124;24.752;2023-07-13T10:08:48;20.90;;;6.28;;
80231;SDS011;70197;42.124;24.752;2023-07-13T10:11:20;14.10;;;6.38;;
80231;SDS011;70197;42.124;24.752;2023-07-13T10:16:36;15.80;;;6.40;;
80231;SDS011;70197;42.124;24.752;2023-07-13T10:21:49;13.68;;;6.18;;
80231;SDS011;70197;42.124;24.752;2023-07-13T10:24:20;20.17;;;6.43;;
80231;SDS011;70197;42.124;24.752;2023-07-13T10:26:50;20.85;;;6.60;;
80231;SDS011;70197;42.124;24.752;2023-07-13T10:29:18;18.33;;;6.30;;
80231;SDS011;70197;42.124;24.752;2023-07-13T10:31:47;14.23;;;6.60;;
80231;SDS011;70197;42.124;24.752;2023-07-13T10:34:13;18.13;;;6.13;;
80231;SDS011;70197;42.124;24.752;2023-07-13T10:36:43;17.23;;;6.30;;
80231;SDS011;70197;42.124;24.752;2023-07-13T10:39:15;21.25;;;7.00;;
80231;SDS011;70197;42.124;24.752;2023-07-13T10:41:46;12.70;;;6.32;;
80231;SDS011;70197;42.124;24.752;2023-07-13T10:44:28;11.63;;;5.65;;
80231;SDS011;70197;42.124;24.752;2023-07-13T10:49:32;21.40;;;6.88;;
80231;SDS011;70197;42.124;24.752;2023-07-13T10:52:00;16.48;;;6.68;;
80231;SDS011;70197;42.124;24.752;2023-07-13T10:54:27;15.07;;;5.88;;
80231;SDS011;70197;42.124;24.752;2023-07-13T11:00:30;9.65;;;6.22;;
80231;SDS011;70197;42.124;24.752;2023-07-13T11:02:41;15.57;;;6.60;;
80231;SDS011;70197;42.124;24.752;2023-07-13T11:05:26;17.70;;;6.25;;
80231;SDS011;70197;42.124;24.752;2023-07-13T11:08:04;13.50;;;5.63;;
80231;SDS011;70197;42.124;24.752;2023-07-13T11:10:47;18.85;;;6.40;;
80231;SDS011;70197;42.124;24.752;2023-07-13T11:21:20;19.85;;;6.18;;
80231;SDS011;70197;42.124;24.752;2023-07-13T11:23:54;17.80;;;6.53;;
80231;SDS011;70197;42.124;24.752;2023-07-13T11:31:42;16.13;;;6.00;;
80231;SDS011;70197;42.124;24.752;2023-07-13T11:34:15;14.93;;;6.38;;
80231;SDS011;70197;42.124;24.752;2023-07-13T11:36:46;12.63;;;6.07;;
80231;SDS011;70197;42.124;24.752;2023-07-13T11:39:24;16.80;;;5.97;;
80231;SDS011;70197;42.124;24.752;2023-07-13T11:41:59;11.68;;;6.13;;
80231;SDS011;70197;42.124;24.752;2023-07-13T11:44:27;18.00;;;5.88;;
80231;SDS011;70197;42.124;24.752;2023-07-13T11:46:58;14.32;;;6.57;;
80231;SDS011;70197;42.124;24.752;2023-07-13T11:49:28;15.80;;;6.60;;
80231;SDS011;70197;42.124;24.752;2023-07-13T11:51:56;16.52;;;6.72;;
80231;SDS011;70197;42.124;24.752;2023-07-13T11:54:30;13.05;;;5.97;;
80231;SDS011;70197;42.124;24.752;2023-07-13T11:57:51;17.98;;;6.05;;
80231;SDS011;70197;42.124;24.752;2023-07-13T12:00:11;13.68;;;6.30;;
80231;SDS011;70197;42.124;24.752;2023-07-13T12:02:44;13.30;;;5.90;;
80231;SDS011;70197;42.124;24.752;2023-07-13T12:05:13;12.23;;;5.90;;
80231;SDS011;70197;42.124;24.752;2023-07-13T12:07:42;17.65;;;6.22;;
80231;SDS011;70197;42.124;24.752;2023-07-13T12:12:36;14.95;;;6.20;;
80231;SDS011;70197;42.124;24.752;2023-07-13T12:15:05;16.38;;;5.82;;
80231;SDS011;70197;42.124;24.752;2023-07-13T12:17:33;17.27;;;6.32;;
80231;SDS011;70197;42.124;24.752;2023-07-13T12:20:00;13.95;;;5.80;;
80231;SDS011;70197;42.124;24.752;2023-07-13T12:22:33;17.92;;;6.50;;
80231;SDS011;70197;42.124;24.752;2023-07-13T12:24:59;15.20;;;5.75;;
80231;SDS011;70197;42.124;24.752;2023-07-13T12:27:26;11.20;;;5.50;;
80231;SDS011;70197;42.124;24.752;2023-07-13T12:29:59;16.70;;;5.95;;
80231;SDS011;70197;42.124;24.752;2023-07-13T12:32:28;18.15;;;5.97;;
80231;SDS011;70197;42.124;24.752;2023-07-13T12:34:57;13.93;;;5.95;;
80231;SDS011;70197;42.124;24.752;2023-07-13T12:37:37;14.88;;;5.97;;
80231;SDS011;70197;42.124;24.752;2023-07-13T12:40:17;15.85;;;6.10;;
80231;SDS011;70197;42.124;24.752;2023-07-13T12:42:57;10.20;;;5.85;;
80231;SDS011;70197;42.124;24.752;2023-07-13T12:45:24;10.85;;;5.63;;
80231;SDS011;70197;42.124;24.752;2023-07-13T12:47:54;14.05;;;5.50;;
80231;SDS011;70197;42.124;24.752;2023-07-13T12:50:27;14.85;;;5.93;;
80231;SDS011;70197;42.124;24.752;2023-07-13T12:53:06;16.73;;;6.00;;
80231;SDS011;70197;42.124;24.752;2023-07-13T12:55:44;19.65;;;5.80;;
80231;SDS011;70197;42.124;24.752;2023-07-13T12:58:36;13.45;;;5.93;;
80231;SDS011;70197;42.124;24.752;2023-07-13T13:01:03;17.55;;;6.38;;
80231;SDS011;70197;42.124;24.752;2023-07-13T13:03:40;14.88;;;5.80;;
80231;SDS011;70197;42.124;24.752;2023-07-13T13:08:47;21.25;;;5.90;;
80231;SDS011;70197;42.124;24.752;2023-07-13T13:11:28;15.35;;;6.10;;
80231;SDS011;70197;42.124;24.752;2023-07-13T13:13:56;15.73;;;6.03;;
80231;SDS011;70197;42.124;24.752;2023-07-13T13:16:22;18.85;;;6.07;;
80231;SDS011;70197;42.124;24.752;2023-07-13T13:18:54;11.60;;;5.80;;
80231;SDS011;70197;42.124;24.752;2023-07-13T13:21:23;12.05;;;5.72;;
80231;SDS011;70197;42.124;24.752;2023-07-13T13:23:49;12.95;;;5.70;;
80231;SDS011;70197;42.124;24.752;2023-07-13T13:26:23;17.17;;;5.78;;
80231;SDS011;70197;42.124;24.752;2023-07-13T13:28:49;18.08;;;6.47;;
80231;SDS011;70197;42.124;24.752;2023-07-13T13:31:15;13.90;;;5.68;;
80231;SDS011;70197;42.124;24.752;2023-07-13T13:33:41;20.20;;;6.13;;
80231;SDS011;70197;42.124;24.752;2023-07-13T13:36:18;18.13;;;5.82;;
80231;SDS011;70197;42.124;24.752;2023-07-13T13:38:45;18.27;;;6.57;;
80231;SDS011;70197;42.124;24.752;2023-07-13T13:41:12;18.60;;;6.13;;
80231;SDS011;70197;42.124;24.752;2023-07-13T13:43:39;11.88;;;5.75;;
80231;SDS011;70197;42.124;24.752;2023-07-13T13:46:11;17.52;;;6.03;;
80231;SDS011;70197;42.124;24.752;2023-07-13T13:48:46;15.32;;;5.82;;
80231;SDS011;70197;42.124;24.752;2023-07-13T13:51:13;18.27;;;6.72;;
80231;SDS011;70197;42.124;24.752;2023-07-13T13:53:47;18.08;;;6.13;;
80231;SDS011;70197;42.124;24.752;2023-07-13T13:56:17;19.08;;;5.93;;
80231;SDS011;70197;42.124;24.752;2023-07-13T13:58:43;19.20;;;6.07;;
80231;SDS011;70197;42.124;24.752;2023-07-13T14:01:19;13.82;;;6.30;;
80231;SDS011;70197;42.124;24.752;2023-07-13T14:03:48;13.90;;;5.82;;
80231;SDS011;70197;42.124;24.752;2023-07-13T14:06:14;20.25;;;6.15;;
80231;SDS011;70197;42.124;24.752;2023-07-13T14:08:41;15.15;;;6.05;;
80231;SDS011;70197;42.124;24.752;2023-07-13T14:11:10;25.67;;;6.03;;
80231;SDS011;70197;42.124;24.752;2023-07-13T14:13:45;17.23;;;5.80;;
80231;SDS011;70197;42.124;24.752;2023-07-13T14:16:17;21.73;;;6.18;;
80231;SDS011;70197;42.124;24.752;2023-07-13T14:18:46;26.40;;;6.63;;
80231;SDS011;70197;42.124;24.752;2023-07-13T14:21:19;18.02;;;6.03;;
80231;SDS011;70197;42.124;24.752;2023-07-13T14:23:46;20.98;;;5.85;;
80231;SDS011;70197;42.124;24.752;2023-07-13T14:26:22;19.67;;;5.90;;
80231;SDS011;70197;42.124;24.752;2023-07-13T14:28:52;17.42;;;5.80;;
80231;SDS011;70197;42.124;24.752;2023-07-13T14:31:21;23.27;;;6.05;;
80231;SDS011;70197;42.124;24.752;2023-07-13T14:33:48;22.52;;;6.47;;
80231;SDS011;70197;42.124;24.752;2023-07-13T14:38:45;19.95;;;6.05;;
80231;SDS011;70197;42.124;24.752;2023-07-13T14:41:11;22.85;;;5.75;;
80231;SDS011;70197;42.124;24.752;2023-07-13T14:43:36;14.07;;;6.20;;
80231;SDS011;70197;42.124;24.752;2023-07-13T14:46:02;17.60;;;6.43;;
80231;SDS011;70197;42.124;24.752;2023-07-13T14:48:29;15.77;;;6.38;;
80231;SDS011;70197;42.124;24.752;2023-07-13T14:50:56;16.50;;;6.20;;
80231;SDS011;70197;42.124;24.752;2023-07-13T14:53:24;21.27;;;5.53;;
80231;SDS011;70197;42.124;24.752;2023-07-13T14:55:50;19.73;;;5.60;;
80231;SDS011;70197;42.124;24.752;2023-07-13T14:58:16;13.48;;;5.28;;
80231;SDS011;70197;42.124;24.752;2023-07-13T15:00:42;21.15;;;5.85;;
80231;SDS011;70197;42.124;24.752;2023-07-13T15:03:14;15.70;;;5.82;;
80231;SDS011;70197;42.124;24.752;2023-07-13T15:05:44;11.27;;;5.05;;
80231;SDS011;70197;42.124;24.752;2023-07-13T15:08:10;36.42;;;14.52;;
80231;SDS011;70197;42.124;24.752;2023-07-13T15:10:36;25.48;;;12.45;;
80231;SDS011;70197;42.124;24.752;2023-07-13T15:13:15;17.17;;;7.85;;
80231;SDS011;70197;42.124;24.752;2023-07-13T15:15:49;19.83;;;5.60;;
80231;SDS011;70197;42.124;24.752;2023-07-13T15:18:17;19.73;;;5.90;;
80231;SDS011;70197;42.124;24.752;2023-07-13T15:20:46;20.75;;;5.50;;
80231;SDS011;70197;42.124;24.752;2023-07-13T15:23:13;17.95;;;5.63;;
80231;SDS011;70197;42.124;24.752;2023-07-13T15:25:40;16.33;;;5.55;;
80231;SDS011;70197;42.124;24.752;2023-07-13T15:28:06;20.15;;;6.05;;